»·PEaware :: N7274H KSNA-KSNA

N7274H :: KSNA-KSNA

FLIGHT INFORMATION

Flight Status: Arrived
Operator: Privately registered:
United States
More flights under this callsign
Pilot: Steven Duran D. (32271)
Aircraft: CESSNA 172 SKYHAWK
(C172)
More flights by this aircraft type
Origin: KSNA John Wayne-Orange Co
United States
Destination: KSNA John Wayne-Orange Co
United States
More flights between these airports :: More routes between these airports
Route: SLI
File this flight plan on PilotEdge
Remarks:
Altitude:
(Current/Filed)
3,000ft
Speed:
(Current/Filed)
108kts
Departed: 02-Jan-21 12:22 PM
Arrived: 02-Jan-21 12:45 PM
Distance/Time
Traveled:
0nm/0:23
Distance/Time
To Go:
Arrived

Flight Plot

Page will automatically refresh every two minutes.


Map Options




Map Legend


Flown Route
Filed Route
Departure Airport
Arrival Airport
Navaid (VOR, NDB)
Fix

Horizontal Profiles

Position Reports

Time Latitude Longitude Heading Altitude Ground
Speed
02-Jan-21 11:34 33.675408 -117.871525 220 59ft 0kts
02-Jan-21 11:35 33.675408 -117.871525 220 59ft 0kts
02-Jan-21 11:36 33.675408 -117.871525 220 59ft 0kts
02-Jan-21 11:37 33.675408 -117.871525 220 59ft 0kts
02-Jan-21 11:38 33.675408 -117.871525 220 59ft 0kts
02-Jan-21 11:39 33.675238 -117.871701 220 59ft 13kts
02-Jan-21 11:43 33.668913 -117.875558 207 59ft 0kts
02-Jan-21 11:44 33.668913 -117.875558 207 59ft 0kts
02-Jan-21 11:45 33.668913 -117.875558 207 59ft 0kts
02-Jan-21 11:46 33.668913 -117.875558 207 59ft 0kts
02-Jan-21 11:47 33.668913 -117.875558 207 59ft 0kts
02-Jan-21 11:48 33.668907 -117.875562 207 59ft 0kts
02-Jan-21 11:49 33.668903 -117.875565 207 59ft 0kts
02-Jan-21 11:50 33.668899 -117.875567 207 59ft 0kts
02-Jan-21 11:51 33.668895 -117.875570 207 59ft 0kts
02-Jan-21 11:52 33.668891 -117.875572 207 59ft 0kts
02-Jan-21 11:53 33.668886 -117.875575 207 59ft 0kts
02-Jan-21 11:54 33.668882 -117.875578 207 59ft 0kts
02-Jan-21 11:55 33.668878 -117.875580 207 59ft 0kts
02-Jan-21 11:57 33.668874 -117.875583 207 59ft 0kts
02-Jan-21 11:58 33.668869 -117.875586 207 59ft 0kts
02-Jan-21 11:59 33.668866 -117.875588 207 59ft 0kts
02-Jan-21 12:00 33.668863 -117.875590 207 59ft 0kts
02-Jan-21 12:01 33.668858 -117.875593 207 59ft 0kts
02-Jan-21 12:02 33.668854 -117.875596 207 59ft 0kts
02-Jan-21 12:03 33.668849 -117.875598 207 59ft 0kts
02-Jan-21 12:04 33.668845 -117.875601 207 59ft 0kts
02-Jan-21 12:05 33.668841 -117.875604 207 59ft 0kts
02-Jan-21 12:06 33.668837 -117.875606 207 59ft 0kts
02-Jan-21 12:07 33.668833 -117.875609 207 59ft 0kts
02-Jan-21 12:08 33.668828 -117.875612 207 59ft 0kts
02-Jan-21 12:09 33.668824 -117.875614 207 59ft 0kts
02-Jan-21 12:10 33.668820 -117.875617 207 59ft 0kts
02-Jan-21 12:11 33.668816 -117.875620 207 59ft 0kts
02-Jan-21 12:12 33.668811 -117.875622 207 59ft 0kts
02-Jan-21 12:13 33.668807 -117.875625 207 59ft 0kts
02-Jan-21 12:14 33.668803 -117.875627 207 59ft 0kts
02-Jan-21 12:14 33.669094 -117.874596 67 59ft 11kts
02-Jan-21 12:15 33.672527 -117.872329 27 59ft 13kts
02-Jan-21 12:17 33.677109 -117.869509 28 59ft 19kts
02-Jan-21 12:17 33.680381 -117.867500 27 59ft 13kts
02-Jan-21 12:18 33.680969 -117.866795 112 59ft 0kts
02-Jan-21 12:19 33.680969 -117.866794 112 59ft 0kts
02-Jan-21 12:20 33.680463 -117.865887 156 59ft 13kts
02-Jan-21 12:21 33.666760 -117.876310 229 601ft 77kts
02-Jan-21 12:22 33.653509 -117.897325 230 1586ft 80kts
02-Jan-21 12:23 33.647580 -117.922170 312 2468ft 97kts
02-Jan-21 12:24 33.675237 -117.920613 12 3068ft 120kts
02-Jan-21 12:25 33.710005 -117.912866 11 2940ft 118kts
02-Jan-21 12:26 33.743120 -117.905538 10 3000ft 123kts
02-Jan-21 12:27 33.776822 -117.893986 32 2889ft 125kts
02-Jan-21 12:28 33.804438 -117.874428 30 3038ft 115kts
02-Jan-21 12:29 33.834598 -117.855574 29 2917ft 124kts
02-Jan-21 12:30 33.863373 -117.838025 31 2970ft 117kts
02-Jan-21 12:31 33.892007 -117.818427 32 3027ft 118kts
02-Jan-21 12:32 33.921029 -117.797408 34 2942ft 125kts
02-Jan-21 12:33 33.933060 -117.766100 123 3044ft 115kts
02-Jan-21 12:34 33.906771 -117.741576 149 2917ft 124kts
02-Jan-21 12:35 33.878627 -117.725721 211 3105ft 112kts
02-Jan-21 12:36 33.857463 -117.754932 214 2935ft 115kts
02-Jan-21 12:37 33.829252 -117.772708 196 2906ft 112kts
02-Jan-21 12:38 33.803501 -117.788976 204 2775ft 97kts
02-Jan-21 12:39 33.779424 -117.803976 209 2287ft 97kts
02-Jan-21 12:40 33.755477 -117.818025 207 1679ft 93kts
02-Jan-21 12:41 33.732622 -117.832591 208 1169ft 91kts
02-Jan-21 12:42 33.710337 -117.846858 207 724ft 88kts
02-Jan-21 12:43 33.688329 -117.860802 207 251ft 86kts
02-Jan-21 12:44 33.676376 -117.868444 207 59ft 20kts
02-Jan-21 12:45 33.675971 -117.870037 276 59ft 4kts
02-Jan-21 12:46 33.675053 -117.871451 250 59ft 0kts
02-Jan-21 12:47 33.674747 -117.871663 222 59ft 0kts

Navigation Log

Ident Type
Flight plan parsing failed, navigation log unavailable